Terminal Aerodrome Forecast
Issued by NWS

Home | Current Version | Previous Version | Graphics & Text | Print | Product List | Glossary Off
Versions: 1 2 3 4 5 6 7 8 9 10 11 12 13 14 15 16 17 18

000
FTUS43 KMPX 290500 RRA
TAFRNH
TAF
KRNH 290542Z 2906/3006 12006KT P6SM BKN150
      TEMPO 2910/2914 3SM BR BKN014
     FM291500 17007KT P6SM SCT150
     FM292200 25007KT P6SM SCT150
     FM300200 30008KT P6SM SCT018=

USA.gov is the U.S. government's official web portal to all federal, state and local government web resources and services.